• Join FlightAware (Why Join?)
  • Login
  • US Flag 
07:48PM EST


 

Airport Tracker/Info


-or-


 

Live Flight TrackerFlight Track Log ✈ N62681 ✈ 26-Apr-2013 ✈ KDPA - KARR

Flight Track Log - Related Links

Times and Time Zones

All times are in EDT time to prevent confusion due to time zone crossing. See the N62681 flight status page for this flight to view local times or setup timezone preferences in your user account.

Time Position Orientation Groundspeed Altitude Reporting Facility
EDT Latitude Longitude Course Direction KTS MPH feet Rate Location/Type
04:16PM 41.8833 -88.2500 143° Southeast 77 89 1,800  Level Chicago TRACON
04:17PM 41.8667 -88.2333 143° Southeast 64 74 2,300 600 Climbing Chicago TRACON
04:18PM 41.8500 -88.2333 180° South 71 82 3,000 300 Climbing Chicago TRACON
04:19PM 41.8333 -88.2167 143° Southeast 88 101 2,900 -120 Descending Chicago TRACON
04:19PM 41.8247 -88.2178 185° South 77 89 2,900 60 Level Chicago Center
04:20PM 41.8053 -88.2114 166° South 78 90 3,000  Climbing Chicago Center
04:21PM 41.7806 -88.2039 167° South 82 94 3,000  Level Chicago Center
04:22PM 41.7672 -88.2333 239° Southwest 91 105 3,000  Level Chicago Center
04:23PM 41.7617 -88.2675 258° West 94 108 3,000 -60 Level Chicago Center
04:24PM 41.7569 -88.3075 261° West 92 106 2,900  Descending Chicago Center
04:25PM 41.7519 -88.3403 258° West 92 106 3,000  Climbing Chicago Center
04:26PM 41.7489 -88.3719 263° West 90 104 3,000  Level Chicago Center
04:27PM 41.7456 -88.4014 261° West 85 98 3,000  Level Chicago Center
04:28PM 41.7408 -88.4294 257° West 81 93 3,000  Level Chicago Center
04:29PM 41.7383 -88.4683 265° West 84 97 3,000  Level Chicago Center
04:30PM 41.7361 -88.5025 265° West 88 101 3,100  Climbing Chicago Center
04:31PM 41.7328 -88.5369 263° West 91 105 3,000 -60 Descending Chicago Center
04:32PM 41.7303 -88.5694 264° West 91 105 3,000  Level Chicago Center
04:33PM 41.7281 -88.6008 265° West 89 102 3,000  Level Chicago Center
04:34PM 41.7247 -88.6397 263° West 87 100 3,000  Level Chicago Center
04:35PM 41.7222 -88.6725 264° West 88 101 3,000  Level Chicago Center
04:36PM 41.7222 -88.7072 270° West 91 105 3,100  Climbing Chicago Center
04:37PM 41.7553 -88.7139 351° North 108 124 3,000 -60 Descending Chicago Center
04:39PM 41.7700 -88.6833 57° Northeast 111 128 3,000 -180 Level Chicago Center
04:40PM 41.7689 -88.6364 92° East 109 125 2,700 -300 Descending Chicago Center
04:41PM 41.7667 -88.5956 94° East 106 122 2,500 -480 Descending Chicago Center
04:42PM 41.7683 -88.5586 87° East 106 122 1,800 -600 Descending Chicago Center
04:43PM 41.7692 -88.5197 88° East 105 121 1,300 -540 Descending Chicago Center